Time,TemperatureF,DewpointF,PressureIn,WindDirection,WindDirectionDegrees,WindSpeedMPH,WindSpeedGustMPH,Humidity,HourlyPrecipIn,Conditions,Clouds,dailyrainin,SoftwareType,DateUTC
2013-05-31 00:01:00,74.7,70.6,30.03,NE,44,2.0,9.0,87,0.00,,SKC,0.00,VWS V14.01,2013-05-31 04:01:00,
2013-05-31 00:06:00,74.6,70.5,30.03,NE,46,5.0,9.0,87,0.00,,SKC,0.00,VWS V14.01,2013-05-31 04:06:00,
2013-05-31 00:11:00,74.4,70.3,30.03,NE,53,1.0,9.0,87,0.00,,SKC,0.00,VWS V14.01,2013-05-31 04:11:00,
2013-05-31 00:16:00,74.4,70.3,30.03,NE,38,2.0,9.0,87,0.00,,SKC,0.00,VWS V14.01,2013-05-31 04:16:00,
2013-05-31 00:21:00,74.2,70.1,30.03,NE,51,5.0,9.0,87,0.00,,SKC,0.00,VWS V14.01,2013-05-31 04:21:00,
2013-05-31 00:26:00,74.1,70.3,30.03,NE,48,6.0,9.0,88,0.00,,SKC,0.00,VWS V14.01,2013-05-31 04:26:00,
2013-05-31 00:31:00,74.1,70.3,30.03,NE,46,5.0,11.0,88,0.00,,SKC,0.00,VWS V14.01,2013-05-31 04:31:00,
2013-05-31 00:36:00,74.0,70.2,30.03,ENE,61,6.0,11.0,88,0.00,,SKC,0.00,VWS V14.01,2013-05-31 04:36:00,
2013-05-31 00:41:00,73.9,70.1,30.03,ENE,69,2.0,11.0,88,0.00,,SKC,0.00,VWS V14.01,2013-05-31 04:41:00,
2013-05-31 00:46:00,73.8,70.0,30.03,NNE,26,1.0,11.0,88,0.00,,SKC,0.00,VWS V14.01,2013-05-31 04:46:00,
2013-05-31 00:51:00,73.7,69.9,30.03,ENE,69,2.0,11.0,88,0.00,,SKC,0.00,VWS V14.01,2013-05-31 04:51:00,
2013-05-31 00:56:00,73.7,69.9,30.03,NNE,31,3.0,11.0,88,0.00,,SKC,0.00,VWS V14.01,2013-05-31 04:56:00,
2013-05-31 01:01:00,73.7,70.3,30.03,NE,46,1.0,5.0,89,0.00,,SKC,0.00,VWS V14.01,2013-05-31 05:01:00,
2013-05-31 01:06:00,73.7,70.3,30.03,ENE,61,7.0,7.0,89,0.00,,SKC,0.00,VWS V14.01,2013-05-31 05:06:00,
2013-05-31 01:11:00,73.7,70.3,30.03,East,89,1.0,7.0,89,0.00,,SKC,0.00,VWS V14.01,2013-05-31 05:11:00,
2013-05-31 01:16:00,73.7,70.3,30.03,NE,53,7.0,9.0,89,0.00,,SKC,0.00,VWS V14.01,2013-05-31 05:16:00,
2013-05-31 01:21:00,73.8,70.4,30.03,NE,53,5.0,9.0,89,0.00,,SKC,0.00,VWS V14.01,2013-05-31 05:21:00,
2013-05-31 01:26:00,73.9,70.5,30.03,ENE,70,5.0,9.0,89,0.00,,SKC,0.00,VWS V14.01,2013-05-31 05:26:00,
2013-05-31 01:31:00,73.9,70.5,30.03,NE,49,1.0,6.0,89,0.00,,SKC,0.00,VWS V14.01,2013-05-31 05:31:00,
2013-05-31 01:36:00,73.9,70.8,30.02,ENE,61,4.0,6.0,90,0.00,,SKC,0.00,VWS V14.01,2013-05-31 05:36:00,
2013-05-31 01:41:00,73.9,70.8,30.02,NNE,20,2.0,10.0,90,0.00,,SKC,0.00,VWS V14.01,2013-05-31 05:41:00,
2013-05-31 01:46:00,73.9,70.8,30.01,NE,54,6.0,10.0,90,0.00,,SKC,0.00,VWS V14.01,2013-05-31 05:46:00,
2013-05-31 01:51:00,73.8,70.7,30.01,NE,54,8.0,10.0,90,0.00,,SKC,0.00,VWS V14.01,2013-05-31 05:51:00,
2013-05-31 01:56:00,73.7,70.6,30.01,NE,51,5.0,10.0,90,0.00,,SKC,0.00,VWS V14.01,2013-05-31 05:56:00,
2013-05-31 02:01:00,73.6,70.5,30.01,NNE,28,2.0,6.0,90,0.00,,SKC,0.00,VWS V14.01,2013-05-31 06:01:00,
2013-05-31 02:06:00,73.5,70.4,30.01,NE,46,6.0,7.0,90,0.00,,SKC,0.00,VWS V14.01,2013-05-31 06:06:00,
2013-05-31 02:11:00,73.4,70.3,30.01,NE,37,5.0,9.0,90,0.00,,SKC,0.00,VWS V14.01,2013-05-31 06:11:00,
2013-05-31 02:16:00,73.3,70.2,30.01,NE,53,5.0,9.0,90,0.00,,SKC,0.00,VWS V14.01,2013-05-31 06:16:00,
2013-05-31 02:21:00,73.1,70.0,30.01,NNE,24,2.0,9.0,90,0.00,,SKC,0.00,VWS V14.01,2013-05-31 06:21:00,
2013-05-31 02:26:00,73.1,70.0,30.01,NNE,30,4.0,9.0,90,0.00,,SKC,0.00,VWS V14.01,2013-05-31 06:26:00,
2013-05-31 02:31:00,73.1,70.0,30.01,NE,38,2.0,6.0,90,0.00,,SKC,0.00,VWS V14.01,2013-05-31 06:31:00,
2013-05-31 02:36:00,73.1,70.0,30.01,East,80,2.0,6.0,90,0.00,,SKC,0.00,VWS V14.01,2013-05-31 06:36:00,
2013-05-31 02:41:00,73.0,69.9,30.00,NE,46,6.0,6.0,90,0.00,,SKC,0.00,VWS V14.01,2013-05-31 06:41:00,
2013-05-31 02:46:00,73.1,70.3,30.00,NE,34,0.0,10.0,91,0.00,,SKC,0.00,VWS V14.01,2013-05-31 06:46:00,
2013-05-31 02:51:00,73.2,70.4,30.00,NE,53,5.0,10.0,91,0.00,,SKC,0.00,VWS V14.01,2013-05-31 06:51:00,
2013-05-31 02:56:00,73.3,70.5,30.00,NE,44,12.0,12.0,91,0.00,,SKC,0.00,VWS V14.01,2013-05-31 06:56:00,
2013-05-31 03:01:00,73.3,70.5,29.99,NE,53,9.0,13.0,91,0.00,,SKC,0.00,VWS V14.01,2013-05-31 07:01:00,
2013-05-31 03:06:00,73.3,70.2,29.99,NE,43,4.0,13.0,90,0.00,,SKC,0.00,VWS V14.01,2013-05-31 07:06:00,
2013-05-31 03:11:00,73.3,70.5,29.99,NE,54,4.0,14.0,91,0.00,,SKC,0.00,VWS V14.01,2013-05-31 07:11:00,
2013-05-31 03:16:00,73.3,70.2,29.99,ENE,69,1.0,14.0,90,0.00,,SKC,0.00,VWS V14.01,2013-05-31 07:16:00,
2013-05-31 03:21:00,73.2,70.4,29.99,NE,44,4.0,14.0,91,0.00,,SKC,0.00,VWS V14.01,2013-05-31 07:21:00,
2013-05-31 03:26:00,73.1,70.3,29.99,NE,46,5.0,14.0,91,0.00,,SKC,0.00,VWS V14.01,2013-05-31 07:26:00,
2013-05-31 03:31:00,73.1,70.3,29.99,ENE,62,5.0,8.0,91,0.00,,SKC,0.00,VWS V14.01,2013-05-31 07:31:00,
2013-05-31 03:36:00,73.0,70.2,30.00,ENE,69,6.0,8.0,91,0.00,,SKC,0.00,VWS V14.01,2013-05-31 07:36:00,
2013-05-31 03:41:00,73.0,70.2,30.00,NNE,31,1.0,12.0,91,0.00,,SKC,0.00,VWS V14.01,2013-05-31 07:41:00,
2013-05-31 03:46:00,72.9,70.1,30.00,NE,51,5.0,12.0,91,0.00,,SKC,0.00,VWS V14.01,2013-05-31 07:46:00,
2013-05-31 03:51:00,72.9,70.1,30.00,NE,40,1.0,12.0,91,0.00,,SKC,0.00,VWS V14.01,2013-05-31 07:51:00,
2013-05-31 03:56:00,72.8,70.3,30.00,NE,44,4.0,12.0,92,0.00,,SKC,0.00,VWS V14.01,2013-05-31 07:56:00,
2013-05-31 04:01:00,72.8,70.3,30.00,NE,40,2.0,5.0,92,0.00,,SKC,0.00,VWS V14.01,2013-05-31 08:01:00,
2013-05-31 04:06:00,72.8,70.3,30.00,ENE,62,1.0,7.0,92,0.00,,SKC,0.00,VWS V14.01,2013-05-31 08:06:00,
2013-05-31 04:11:00,72.7,70.2,30.00,NE,48,2.0,8.0,92,0.00,,SKC,0.00,VWS V14.01,2013-05-31 08:11:00,
2013-05-31 04:16:00,72.7,70.2,30.00,NE,51,0.0,8.0,92,0.00,,SKC,0.00,VWS V14.01,2013-05-31 08:16:00,
2013-05-31 04:21:00,72.6,70.2,30.01,NE,42,6.0,8.0,92,0.00,,SKC,0.00,VWS V14.01,2013-05-31 08:21:00,
2013-05-31 04:26:00,72.5,70.1,30.00,NE,51,0.0,8.0,92,0.00,,SKC,0.00,VWS V14.01,2013-05-31 08:26:00,
2013-05-31 04:31:00,72.5,70.1,30.00,NE,38,1.0,5.0,92,0.00,,SKC,0.00,VWS V14.01,2013-05-31 08:31:00,
2013-05-31 04:36:00,72.5,70.1,30.00,NNE,22,0.0,6.0,92,0.00,,SKC,0.00,VWS V14.01,2013-05-31 08:36:00,
2013-05-31 04:41:00,72.4,69.9,30.00,NNE,12,1.0,6.0,92,0.00,,SKC,0.00,VWS V14.01,2013-05-31 08:41:00,
2013-05-31 04:46:00,72.4,69.9,30.00,NNE,24,2.0,6.0,92,0.00,,SKC,0.00,VWS V14.01,2013-05-31 08:46:00,
2013-05-31 04:51:00,72.4,70.3,30.00,East,90,2.0,7.0,93,0.00,,SKC,0.00,VWS V14.01,2013-05-31 08:51:00,
2013-05-31 04:56:00,72.4,70.3,30.00,NNE,23,4.0,8.0,93,0.00,,SKC,0.00,VWS V14.01,2013-05-31 08:56:00,
2013-05-31 05:01:00,72.4,70.3,30.00,NE,38,1.0,6.0,93,0.00,,SKC,0.00,VWS V14.01,2013-05-31 09:01:00,
2013-05-31 05:06:00,72.4,70.3,30.00,East,81,5.0,7.0,93,0.00,,SKC,0.00,VWS V14.01,2013-05-31 09:06:00,
2013-05-31 05:11:00,72.4,70.3,30.00,NE,53,3.0,9.0,93,0.00,,SKC,0.00,VWS V14.01,2013-05-31 09:11:00,
2013-05-31 05:16:00,72.4,70.3,30.00,NE,46,5.0,9.0,93,0.00,,SKC,0.00,VWS V14.01,2013-05-31 09:16:00,
2013-05-31 05:21:00,72.5,70.4,29.99,ENE,62,4.0,9.0,93,0.00,,SKC,0.00,VWS V14.01,2013-05-31 09:21:00,
2013-05-31 05:26:00,72.5,70.4,29.99,East,83,9.0,11.0,93,0.00,,SKC,0.00,VWS V14.01,2013-05-31 09:26:00,
2013-05-31 05:31:00,72.5,70.4,29.99,ENE,59,6.0,10.0,93,0.00,,SKC,0.00,VWS V14.01,2013-05-31 09:31:00,
2013-05-31 05:36:00,72.5,70.4,29.99,NNE,27,4.0,11.0,93,0.00,,SKC,0.00,VWS V14.01,2013-05-31 09:36:00,
2013-05-31 05:41:00,72.4,70.3,29.98,East,90,6.0,11.0,93,0.00,,SKC,0.00,VWS V14.01,2013-05-31 09:41:00,
2013-05-31 05:46:00,72.4,70.3,29.98,ENE,65,10.0,13.0,93,0.00,,SKC,0.00,VWS V14.01,2013-05-31 09:46:00,
2013-05-31 05:51:00,72.3,70.2,29.98,ESE,105,4.0,13.0,93,0.00,,SKC,0.00,VWS V14.01,2013-05-31 09:51:00,
2013-05-31 05:56:00,72.3,70.2,29.98,ENE,71,6.0,13.0,93,0.00,,SKC,0.00,VWS V14.01,2013-05-31 09:56:00,
2013-05-31 06:01:00,72.4,70.3,29.98,NE,35,5.0,9.0,93,0.00,,SKC,0.00,VWS V14.01,2013-05-31 10:01:00,
2013-05-31 06:06:00,72.4,70.3,29.99,ESE,105,5.0,9.0,93,0.00,,SKC,0.00,VWS V14.01,2013-05-31 10:06:00,
2013-05-31 06:11:00,72.4,70.3,29.99,East,91,8.0,9.0,93,0.00,,SKC,0.00,VWS V14.01,2013-05-31 10:11:00,
2013-05-31 06:16:00,72.4,70.3,29.99,ENE,61,8.0,12.0,93,0.00,,SKC,0.00,VWS V14.01,2013-05-31 10:16:00,
2013-05-31 06:21:00,72.5,70.4,29.99,East,80,4.0,12.0,93,0.00,,SKC,0.00,VWS V14.01,2013-05-31 10:21:00,
2013-05-31 06:26:00,72.5,70.4,29.99,ENE,65,4.0,13.0,93,0.00,,SKC,0.00,VWS V14.01,2013-05-31 10:26:00,
2013-05-31 06:31:00,72.5,70.4,30.00,NE,47,5.0,8.0,93,0.00,,SKC,0.00,VWS V14.01,2013-05-31 10:31:00,
2013-05-31 06:36:00,72.6,70.5,30.00,ENE,58,4.0,12.0,93,0.00,,SKC,0.00,VWS V14.01,2013-05-31 10:36:00,
2013-05-31 06:41:00,72.6,70.5,30.00,East,83,7.0,12.0,93,0.00,,SKC,0.00,VWS V14.01,2013-05-31 10:41:00,
2013-05-31 06:46:00,72.6,70.5,30.00,NE,47,6.0,12.0,93,0.00,,SKC,0.00,VWS V14.01,2013-05-31 10:46:00,
2013-05-31 06:51:00,72.6,70.5,30.00,NE,39,5.0,12.0,93,0.00,,SKC,0.00,VWS V14.01,2013-05-31 10:51:00,
2013-05-31 06:56:00,72.6,70.5,30.00,NE,49,4.0,12.0,93,0.00,,SKC,0.00,VWS V14.01,2013-05-31 10:56:00,
2013-05-31 07:01:00,72.6,70.5,30.01,ENE,63,5.0,6.0,93,0.00,,SKC,0.00,VWS V14.01,2013-05-31 11:01:00,
2013-05-31 07:06:00,72.5,70.4,30.01,ENE,60,4.0,7.0,93,0.00,,SKC,0.00,VWS V14.01,2013-05-31 11:06:00,
2013-05-31 07:11:00,72.4,70.3,30.01,NE,53,4.0,7.0,93,0.00,,SKC,0.00,VWS V14.01,2013-05-31 11:11:00,
2013-05-31 07:16:00,72.5,70.7,30.01,ENE,67,2.0,7.0,94,0.00,,SKC,0.00,VWS V14.01,2013-05-31 11:16:00,
2013-05-31 07:21:00,72.6,70.8,30.01,ENE,65,3.0,8.0,94,0.00,,SKC,0.00,VWS V14.01,2013-05-31 11:21:00,
2013-05-31 07:26:00,73.0,71.2,30.01,ENE,59,5.0,8.0,94,0.00,,SKC,0.00,VWS V14.01,2013-05-31 11:26:00,
2013-05-31 07:31:00,73.4,71.3,30.02,ENE,59,1.0,5.0,93,0.00,,SKC,0.00,VWS V14.01,2013-05-31 11:31:00,
2013-05-31 07:36:00,73.8,71.7,30.02,NNW,329,9.0,9.0,93,0.00,,SKC,0.00,VWS V14.01,2013-05-31 11:36:00,
2013-05-31 07:41:00,74.2,72.1,30.02,NE,48,7.0,10.0,93,0.00,,SKC,0.00,VWS V14.01,2013-05-31 11:41:00,
2013-05-31 07:46:00,74.4,71.9,30.02,ENE,58,5.0,12.0,92,0.00,,SKC,0.00,VWS V14.01,2013-05-31 11:46:00,
2013-05-31 07:51:00,74.8,72.0,30.02,ENE,59,5.0,12.0,91,0.00,,SKC,0.00,VWS V14.01,2013-05-31 11:51:00,
2013-05-31 07:56:00,75.2,72.4,30.02,ENE,68,5.0,12.0,91,0.00,,SKC,0.00,VWS V14.01,2013-05-31 11:56:00,
2013-05-31 08:01:00,75.6,72.5,30.02,ENE,78,8.0,12.0,90,0.00,,SKC,0.00,VWS V14.01,2013-05-31 12:01:00,
2013-05-31 08:06:00,75.7,72.2,30.02,ENE,58,8.0,15.0,89,0.00,,SKC,0.00,VWS V14.01,2013-05-31 12:06:00,
2013-05-31 08:11:00,76.1,72.6,30.02,ENE,71,6.0,15.0,89,0.00,,SKC,0.00,VWS V14.01,2013-05-31 12:11:00,
2013-05-31 08:16:00,76.3,72.5,30.02,ENE,65,13.0,15.0,88,0.00,,SKC,0.00,VWS V14.01,2013-05-31 12:16:00,
2013-05-31 08:21:00,76.4,72.6,30.02,East,80,4.0,18.0,88,0.00,,SKC,0.00,VWS V14.01,2013-05-31 12:21:00,
2013-05-31 08:26:00,76.8,73.0,30.03,East,90,11.0,18.0,88,0.00,,SKC,0.00,VWS V14.01,2013-05-31 12:26:00,
2013-05-31 08:31:00,76.9,72.7,30.02,East,95,7.0,13.0,87,0.00,,SKC,0.00,VWS V14.01,2013-05-31 12:31:00,
2013-05-31 08:36:00,77.2,73.0,30.03,ENE,65,4.0,13.0,87,0.00,,SKC,0.00,VWS V14.01,2013-05-31 12:36:00,
2013-05-31 08:41:00,77.6,73.1,30.03,NE,42,5.0,13.0,86,0.00,,SKC,0.00,VWS V14.01,2013-05-31 12:41:00,
2013-05-31 08:46:00,78.1,73.2,30.03,ENE,61,5.0,13.0,85,0.00,,SKC,0.00,VWS V14.01,2013-05-31 12:46:00,
2013-05-31 08:51:00,78.4,73.2,30.03,ENE,76,10.0,13.0,84,0.00,,SKC,0.00,VWS V14.01,2013-05-31 12:51:00,
2013-05-31 08:56:00,78.7,73.5,30.03,East,98,8.0,13.0,84,0.00,,SKC,0.00,VWS V14.01,2013-05-31 12:56:00,
2013-05-31 09:01:00,78.9,73.3,30.03,NE,39,6.0,10.0,83,0.00,,SKC,0.00,VWS V14.01,2013-05-31 13:01:00,
2013-05-31 09:06:00,79.2,73.2,30.03,East,83,8.0,13.0,82,0.00,,SKC,0.00,VWS V14.01,2013-05-31 13:06:00,
2013-05-31 09:11:00,79.3,73.7,30.02,NE,54,6.0,14.0,83,0.00,,SKC,0.00,VWS V14.01,2013-05-31 13:11:00,
2013-05-31 09:16:00,79.8,73.8,30.03,SE,127,5.0,14.0,82,0.00,,SKC,0.00,VWS V14.01,2013-05-31 13:16:00,
2013-05-31 09:21:00,80.2,73.8,30.02,ENE,68,9.0,14.0,81,0.00,,SKC,0.00,VWS V14.01,2013-05-31 13:21:00,
2013-05-31 09:26:00,80.5,73.8,30.02,NE,49,7.0,14.0,80,0.00,,SKC,0.00,VWS V14.01,2013-05-31 13:26:00,
2013-05-31 09:31:00,80.8,74.1,30.02,NE,42,9.0,12.0,80,0.00,,SKC,0.00,VWS V14.01,2013-05-31 13:31:00,
2013-05-31 09:36:00,81.0,73.5,30.02,ENE,65,11.0,14.0,78,0.00,,SKC,0.00,VWS V14.01,2013-05-31 13:36:00,
2013-05-31 09:41:00,81.7,74.2,30.02,ENE,65,11.0,14.0,78,0.00,,SKC,0.00,VWS V14.01,2013-05-31 13:41:00,
2013-05-31 09:46:00,81.5,74.0,30.02,ESE,103,9.0,14.0,78,0.00,,SKC,0.00,VWS V14.01,2013-05-31 13:46:00,
2013-05-31 09:51:00,81.5,73.6,30.02,East,81,8.0,14.0,77,0.00,,SKC,0.00,VWS V14.01,2013-05-31 13:51:00,
2013-05-31 09:56:00,81.2,73.3,30.02,East,94,4.0,15.0,77,0.00,,SKC,0.00,VWS V14.01,2013-05-31 13:56:00,
2013-05-31 10:01:00,81.4,73.5,30.02,NE,56,10.0,18.0,77,0.00,,SKC,0.00,VWS V14.01,2013-05-31 14:01:00,
2013-05-31 10:06:00,81.7,73.8,30.02,ENE,67,8.0,18.0,77,0.00,,SKC,0.00,VWS V14.01,2013-05-31 14:06:00,
2013-05-31 10:11:00,82.0,73.7,30.02,SE,128,8.0,18.0,76,0.00,,SKC,0.00,VWS V14.01,2013-05-31 14:11:00,
2013-05-31 10:16:00,82.0,73.7,30.02,NE,46,6.0,18.0,76,0.00,,SKC,0.00,VWS V14.01,2013-05-31 14:16:00,
2013-05-31 10:21:00,82.0,73.3,30.02,SE,124,12.0,18.0,75,0.00,,SKC,0.00,VWS V14.01,2013-05-31 14:21:00,
2013-05-31 10:26:00,82.2,73.5,30.02,East,86,10.0,18.0,75,0.00,,SKC,0.00,VWS V14.01,2013-05-31 14:26:00,
2013-05-31 10:31:00,82.8,73.7,30.02,ENE,68,10.0,14.0,74,0.00,,SKC,0.00,VWS V14.01,2013-05-31 14:31:00,
2013-05-31 10:36:00,83.0,73.5,30.02,NE,46,9.0,14.0,73,0.00,,SKC,0.00,VWS V14.01,2013-05-31 14:36:00,
2013-05-31 10:41:00,82.6,73.5,30.02,East,96,6.0,14.0,74,0.00,,SKC,0.00,VWS V14.01,2013-05-31 14:41:00,
2013-05-31 10:46:00,83.0,73.5,30.02,NE,48,5.0,14.0,73,0.00,,SKC,0.00,VWS V14.01,2013-05-31 14:46:00,
2013-05-31 10:51:00,83.9,73.9,30.02,SE,126,6.0,14.0,72,0.00,,SKC,0.00,VWS V14.01,2013-05-31 14:51:00,
2013-05-31 10:56:00,84.2,73.8,30.02,SE,129,2.0,14.0,71,0.00,,SKC,0.00,VWS V14.01,2013-05-31 14:56:00,
2013-05-31 11:01:00,84.3,73.9,30.02,ESE,106,6.0,8.0,71,0.00,,SKC,0.00,VWS V14.01,2013-05-31 15:01:00,
2013-05-31 11:06:00,84.5,74.5,30.02,SE,130,4.0,9.0,72,0.00,,SKC,0.00,VWS V14.01,2013-05-31 15:06:00,
2013-05-31 11:11:00,84.5,73.7,30.02,East,85,9.0,9.0,70,0.00,,SKC,0.00,VWS V14.01,2013-05-31 15:11:00,
2013-05-31 11:16:00,84.3,73.5,30.02,ENE,57,7.0,13.0,70,0.00,,SKC,0.00,VWS V14.01,2013-05-31 15:16:00,
2013-05-31 11:21:00,83.8,73.4,30.02,NE,41,5.0,13.0,71,0.00,,SKC,0.00,VWS V14.01,2013-05-31 15:21:00,
2013-05-31 11:26:00,83.7,73.3,30.02,ESE,111,7.0,13.0,71,0.00,,SKC,0.00,VWS V14.01,2013-05-31 15:26:00,
2013-05-31 11:31:00,83.6,73.6,30.02,NE,38,6.0,9.0,72,0.00,,SKC,0.00,VWS V14.01,2013-05-31 15:31:00,
2013-05-31 11:36:00,83.8,73.4,30.02,East,101,9.0,12.0,71,0.00,,SKC,0.00,VWS V14.01,2013-05-31 15:36:00,
2013-05-31 11:41:00,84.7,74.3,30.02,NE,54,6.0,12.0,71,0.00,,SKC,0.00,VWS V14.01,2013-05-31 15:41:00,
2013-05-31 11:46:00,85.5,74.2,30.02,ESE,107,6.0,12.0,69,0.00,,SKC,0.00,VWS V14.01,2013-05-31 15:46:00,
2013-05-31 11:51:00,85.1,73.8,30.02,East,81,10.0,14.0,69,0.00,,SKC,0.00,VWS V14.01,2013-05-31 15:51:00,
2013-05-31 11:56:00,85.0,73.7,30.02,East,97,7.0,15.0,69,0.00,,SKC,0.00,VWS V14.01,2013-05-31 15:56:00,
2013-05-31 12:01:00,84.8,73.5,30.02,ESE,108,6.0,7.0,69,0.00,,SKC,0.00,VWS V14.01,2013-05-31 16:01:00,
2013-05-31 12:06:00,85.1,74.2,30.02,ESE,117,7.0,9.0,70,0.00,,SKC,0.00,VWS V14.01,2013-05-31 16:06:00,
2013-05-31 12:11:00,85.2,73.9,30.02,ENE,74,8.0,10.0,69,0.00,,SKC,0.00,VWS V14.01,2013-05-31 16:11:00,
2013-05-31 12:16:00,85.2,73.9,30.02,East,80,13.0,13.0,69,0.00,,SKC,0.00,VWS V14.01,2013-05-31 16:16:00,
2013-05-31 12:21:00,85.1,74.2,30.02,NE,48,5.0,13.0,70,0.00,,SKC,0.00,VWS V14.01,2013-05-31 16:21:00,
2013-05-31 12:26:00,84.9,73.6,30.02,ENE,57,4.0,13.0,69,0.00,,SKC,0.00,VWS V14.01,2013-05-31 16:26:00,
2013-05-31 12:31:00,84.9,73.6,30.02,ESE,114,2.0,10.0,69,0.00,,SKC,0.00,VWS V14.01,2013-05-31 16:31:00,
2013-05-31 12:36:00,84.7,73.0,30.02,SE,128,7.0,10.0,68,0.00,,SKC,0.00,VWS V14.01,2013-05-31 16:36:00,
2013-05-31 12:41:00,84.6,73.3,30.02,East,79,7.0,10.0,69,0.00,,SKC,0.00,VWS V14.01,2013-05-31 16:41:00,
2013-05-31 12:46:00,84.6,73.7,30.02,ESE,108,5.0,10.0,70,0.00,,SKC,0.00,VWS V14.01,2013-05-31 16:46:00,
2013-05-31 12:51:00,85.4,73.6,30.02,ENE,65,9.0,10.0,68,0.00,,SKC,0.00,VWS V14.01,2013-05-31 16:51:00,
2013-05-31 12:56:00,85.5,74.2,30.02,ENE,74,6.0,10.0,69,0.00,,SKC,0.00,VWS V14.01,2013-05-31 16:56:00,
2013-05-31 13:01:00,86.0,73.8,30.01,ESE,115,7.0,12.0,67,0.00,,SKC,0.00,VWS V14.01,2013-05-31 17:01:00,
2013-05-31 13:06:00,86.6,74.8,30.01,NE,42,5.0,12.0,68,0.00,,SKC,0.00,VWS V14.01,2013-05-31 17:06:00,
2013-05-31 13:11:00,86.6,74.3,30.01,ENE,59,12.0,12.0,67,0.00,,SKC,0.00,VWS V14.01,2013-05-31 17:11:00,
2013-05-31 13:16:00,85.9,74.1,30.01,NE,49,9.0,13.0,68,0.00,,SKC,0.00,VWS V14.01,2013-05-31 17:16:00,
2013-05-31 13:21:00,85.7,73.0,30.01,ENE,67,6.0,13.0,66,0.00,,SKC,0.00,VWS V14.01,2013-05-31 17:21:00,
2013-05-31 13:26:00,85.8,73.6,30.01,ENE,65,8.0,13.0,67,0.00,,SKC,0.00,VWS V14.01,2013-05-31 17:26:00,
2013-05-31 13:31:00,86.1,74.3,30.01,NW,313,5.0,10.0,68,0.00,,SKC,0.00,VWS V14.01,2013-05-31 17:31:00,
2013-05-31 13:36:00,85.0,74.6,30.00,ESE,111,7.0,13.0,71,0.00,,SKC,0.00,VWS V14.01,2013-05-31 17:36:00,
2013-05-31 13:41:00,85.0,75.0,30.00,NE,51,9.0,13.0,72,0.00,,SKC,0.00,VWS V14.01,2013-05-31 17:41:00,
2013-05-31 13:46:00,84.9,74.9,30.00,NNW,346,11.0,13.0,72,0.00,,SKC,0.00,VWS V14.01,2013-05-31 17:46:00,
2013-05-31 13:51:00,84.9,74.4,30.00,NE,44,8.0,13.0,71,0.00,,SKC,0.00,VWS V14.01,2013-05-31 17:51:00,
2013-05-31 13:56:00,84.5,73.7,30.00,NE,55,6.0,13.0,70,0.00,,SKC,0.00,VWS V14.01,2013-05-31 17:56:00,
2013-05-31 14:01:00,84.5,74.1,29.99,NNE,26,4.0,6.0,71,0.00,,SKC,0.00,VWS V14.01,2013-05-31 18:01:00,
2013-05-31 14:06:00,85.2,73.9,29.99,NNE,22,7.0,12.0,69,0.00,,SKC,0.00,VWS V14.01,2013-05-31 18:06:00,
2013-05-31 14:11:00,85.4,72.8,29.99,NE,44,6.0,13.0,66,0.00,,SKC,0.00,VWS V14.01,2013-05-31 18:11:00,
2013-05-31 14:16:00,85.9,73.2,29.99,ENE,62,8.0,14.0,66,0.00,,SKC,0.00,VWS V14.01,2013-05-31 18:16:00,
2013-05-31 14:21:00,85.9,73.2,29.99,NE,51,13.0,18.0,66,0.00,,SKC,0.00,VWS V14.01,2013-05-31 18:21:00,
2013-05-31 14:26:00,86.2,74.0,29.99,NNE,17,6.0,18.0,67,0.00,,SKC,0.00,VWS V14.01,2013-05-31 18:26:00,
2013-05-31 14:31:00,85.6,74.3,29.99,NE,39,3.0,10.0,69,0.00,,SKC,0.00,VWS V14.01,2013-05-31 18:31:00,
2013-05-31 14:36:00,86.4,75.0,29.99,NE,51,5.0,16.0,69,0.00,,SKC,0.00,VWS V14.01,2013-05-31 18:36:00,
2013-05-31 14:41:00,86.5,74.7,29.99,NE,49,11.0,16.0,68,0.00,,SKC,0.00,VWS V14.01,2013-05-31 18:41:00,
2013-05-31 14:46:00,86.0,74.7,29.99,NE,49,14.0,16.0,69,0.00,,SKC,0.00,VWS V14.01,2013-05-31 18:46:00,
2013-05-31 14:51:00,85.7,73.9,29.98,NE,56,11.0,16.0,68,0.00,,SKC,0.00,VWS V14.01,2013-05-31 18:51:00,
2013-05-31 14:56:00,86.4,74.2,29.98,ENE,63,8.0,16.0,67,0.00,,SKC,0.00,VWS V14.01,2013-05-31 18:56:00,
2013-05-31 15:01:00,86.6,73.4,29.98,NNE,28,8.0,13.0,65,0.00,,SKC,0.00,VWS V14.01,2013-05-31 19:01:00,
2013-05-31 15:06:00,86.2,74.0,29.97,NNE,28,7.0,14.0,67,0.00,,SKC,0.00,VWS V14.01,2013-05-31 19:06:00,
2013-05-31 15:11:00,86.0,75.1,29.97,NE,53,11.0,15.0,70,0.00,,SKC,0.00,VWS V14.01,2013-05-31 19:11:00,
2013-05-31 15:16:00,85.7,75.6,29.97,ENE,65,10.0,21.0,72,0.00,,SKC,0.00,VWS V14.01,2013-05-31 19:16:00,
2013-05-31 15:21:00,85.0,75.8,29.97,NE,54,16.0,21.0,74,0.00,,SKC,0.00,VWS V14.01,2013-05-31 19:21:00,
2013-05-31 15:26:00,84.5,75.3,29.97,NNE,29,5.0,21.0,74,0.00,,SKC,0.00,VWS V14.01,2013-05-31 19:26:00,
2013-05-31 15:31:00,84.8,75.2,29.97,NNE,18,13.0,13.0,73,0.00,,SKC,0.00,VWS V14.01,2013-05-31 19:31:00,
2013-05-31 15:36:00,84.6,75.0,29.98,NW,317,6.0,14.0,73,0.00,,SKC,0.00,VWS V14.01,2013-05-31 19:36:00,
2013-05-31 15:41:00,84.5,74.1,29.98,ENE,57,11.0,14.0,71,0.00,,SKC,0.00,VWS V14.01,2013-05-31 19:41:00,
2013-05-31 15:46:00,84.2,74.2,29.98,NE,48,11.0,16.0,72,0.00,,SKC,0.00,VWS V14.01,2013-05-31 19:46:00,
2013-05-31 15:51:00,84.4,74.4,29.97,ENE,63,3.0,16.0,72,0.00,,SKC,0.00,VWS V14.01,2013-05-31 19:51:00,
2013-05-31 15:56:00,84.2,75.4,29.97,SSW,197,1.0,16.0,75,0.00,,SKC,0.00,VWS V14.01,2013-05-31 19:56:00,
2013-05-31 16:01:00,82.8,75.2,29.97,SSW,206,2.0,4.0,78,0.00,,SKC,0.00,VWS V14.01,2013-05-31 20:01:00,
2013-05-31 16:06:00,82.1,75.3,29.97,SSW,202,5.0,5.0,80,0.00,,SKC,0.00,VWS V14.01,2013-05-31 20:06:00,
2013-05-31 16:11:00,81.9,74.4,29.97,ESE,109,5.0,5.0,78,0.00,,SKC,0.00,VWS V14.01,2013-05-31 20:11:00,
2013-05-31 16:16:00,81.9,74.4,29.97,SE,124,5.0,7.0,78,0.00,,SKC,0.00,VWS V14.01,2013-05-31 20:16:00,
2013-05-31 16:21:00,81.8,74.3,29.97,ESE,119,0.0,7.0,78,0.00,,SKC,0.00,VWS V14.01,2013-05-31 20:21:00,
2013-05-31 16:26:00,81.8,75.4,29.98,North,355,0.0,7.0,81,0.16,,SKC,0.16,VWS V14.01,2013-05-31 20:26:00,
2013-05-31 16:31:00,80.2,74.6,29.98,WSW,246,1.0,1.0,83,0.29,,SKC,0.29,VWS V14.01,2013-05-31 20:31:00,
2013-05-31 16:36:00,78.7,74.2,29.97,West,259,0.0,1.0,86,0.31,,SKC,0.31,VWS V14.01,2013-05-31 20:36:00,
2013-05-31 16:41:00,78.4,74.9,29.98,SE,129,2.0,2.0,89,0.32,,SKC,0.32,VWS V14.01,2013-05-31 20:41:00,
2013-05-31 16:46:00,77.8,74.3,29.98,SSE,155,2.0,5.0,89,0.32,,SKC,0.32,VWS V14.01,2013-05-31 20:46:00,
2013-05-31 16:51:00,77.3,74.1,29.97,SE,145,1.0,9.0,90,0.32,,SKC,0.32,VWS V14.01,2013-05-31 20:51:00,
2013-05-31 16:56:00,77.3,74.5,29.97,South,175,4.0,11.0,91,0.32,,SKC,0.32,VWS V14.01,2013-05-31 20:56:00,
2013-05-31 17:01:00,77.0,74.2,29.97,ESE,123,2.0,4.0,91,0.32,,SKC,0.32,VWS V14.01,2013-05-31 21:01:00,
2013-05-31 17:06:00,77.0,74.2,29.97,SSE,152,2.0,6.0,91,0.32,,SKC,0.32,VWS V14.01,2013-05-31 21:06:00,
2013-05-31 17:11:00,76.8,74.0,29.97,SE,136,3.0,7.0,91,0.32,,SKC,0.32,VWS V14.01,2013-05-31 21:11:00,
2013-05-31 17:16:00,76.6,73.8,29.97,SE,136,4.0,7.0,91,0.32,,SKC,0.32,VWS V14.01,2013-05-31 21:16:00,
2013-05-31 17:21:00,76.6,73.8,29.97,SE,125,0.0,7.0,91,0.32,,SKC,0.32,VWS V14.01,2013-05-31 21:21:00,
2013-05-31 17:26:00,76.5,73.7,29.97,ESE,105,0.0,7.0,91,0.32,,SKC,0.32,VWS V14.01,2013-05-31 21:26:00,
2013-05-31 17:31:00,76.6,74.1,29.97,SE,128,0.0,0.0,92,0.05,,SKC,0.32,VWS V14.01,2013-05-31 21:31:00,
2013-05-31 17:36:00,76.8,74.3,29.97,SE,128,0.0,0.0,92,0.06,,SKC,0.33,VWS V14.01,2013-05-31 21:36:00,
2013-05-31 17:41:00,76.7,74.2,29.97,NE,55,0.0,0.0,92,0.07,,SKC,0.34,VWS V14.01,2013-05-31 21:41:00,
2013-05-31 17:46:00,76.5,74.0,29.97,NE,48,0.0,0.0,92,0.08,,SKC,0.35,VWS V14.01,2013-05-31 21:46:00,
2013-05-31 17:51:00,76.6,74.4,29.97,NE,48,0.0,0.0,93,0.08,,SKC,0.35,VWS V14.01,2013-05-31 21:51:00,
2013-05-31 17:56:00,76.6,74.4,29.97,NE,49,0.0,0.0,93,0.09,,SKC,0.36,VWS V14.01,2013-05-31 21:56:00,
2013-05-31 18:01:00,76.6,74.4,29.97,SSW,195,0.0,0.0,93,0.04,,SKC,0.36,VWS V14.01,2013-05-31 22:01:00,
2013-05-31 18:06:00,76.4,74.2,29.97,SSW,202,0.0,0.0,93,0.04,,SKC,0.36,VWS V14.01,2013-05-31 22:06:00,
2013-05-31 18:11:00,76.4,74.2,29.97,SSW,207,0.0,0.0,93,0.05,,SKC,0.37,VWS V14.01,2013-05-31 22:11:00,
2013-05-31 18:16:00,76.5,74.3,29.97,SSW,207,0.0,0.0,93,0.05,,SKC,0.37,VWS V14.01,2013-05-31 22:16:00,
2013-05-31 18:21:00,76.7,74.8,29.97,SSW,208,0.0,0.0,94,0.05,,SKC,0.37,VWS V14.01,2013-05-31 22:21:00,
2013-05-31 18:26:00,76.8,74.6,29.97,SSW,207,0.0,0.0,93,0.05,,SKC,0.37,VWS V14.01,2013-05-31 22:26:00,
2013-05-31 18:31:00,77.0,74.8,29.97,SSW,207,0.0,0.0,93,0.05,,SKC,0.37,VWS V14.01,2013-05-31 22:31:00,
2013-05-31 18:36:00,77.1,75.2,29.97,SSW,207,0.0,0.0,94,0.05,,SKC,0.37,VWS V14.01,2013-05-31 22:36:00,
2013-05-31 18:41:00,77.3,75.1,29.97,SSW,207,0.0,0.0,93,0.05,,SKC,0.37,VWS V14.01,2013-05-31 22:41:00,
2013-05-31 18:46:00,77.2,75.0,29.97,SSW,207,0.0,0.0,93,0.05,,SKC,0.37,VWS V14.01,2013-05-31 22:46:00,
2013-05-31 18:51:00,77.2,75.0,29.97,SSW,207,0.0,0.0,93,0.05,,SKC,0.37,VWS V14.01,2013-05-31 22:51:00,
2013-05-31 18:56:00,77.4,75.2,29.97,East,81,0.0,0.0,93,0.05,,SKC,0.37,VWS V14.01,2013-05-31 22:56:00,
2013-05-31 19:01:00,77.5,75.3,29.97,NE,50,0.0,0.0,93,0.01,,SKC,0.37,VWS V14.01,2013-05-31 23:01:00,
2013-05-31 19:06:00,77.6,75.4,29.97,NE,38,2.0,3.0,93,0.01,,SKC,0.37,VWS V14.01,2013-05-31 23:06:00,
2013-05-31 19:11:00,77.7,75.5,29.97,NE,40,1.0,4.0,93,0.01,,SKC,0.37,VWS V14.01,2013-05-31 23:11:00,
2013-05-31 19:16:00,77.8,75.6,29.97,NNE,22,0.0,4.0,93,0.01,,SKC,0.37,VWS V14.01,2013-05-31 23:16:00,
2013-05-31 19:21:00,77.7,75.5,29.98,East,92,11.0,11.0,93,0.01,,SKC,0.37,VWS V14.01,2013-05-31 23:21:00,
2013-05-31 19:26:00,77.0,74.2,29.98,East,96,7.0,14.0,91,0.01,,SKC,0.37,VWS V14.01,2013-05-31 23:26:00,
2013-05-31 19:31:00,76.6,73.8,29.98,SSE,158,6.0,8.0,91,0.01,,SKC,0.38,VWS V14.01,2013-05-31 23:31:00,
2013-05-31 19:36:00,75.7,72.9,29.98,ESE,123,12.0,18.0,91,0.21,,SKC,0.58,VWS V14.01,2013-05-31 23:36:00,
2013-05-31 19:41:00,75.1,72.6,29.99,ENE,65,5.0,18.0,92,0.26,,SKC,0.63,VWS V14.01,2013-05-31 23:41:00,
2013-05-31 19:46:00,74.9,72.7,29.99,ENE,78,6.0,18.0,93,0.26,,SKC,0.63,VWS V14.01,2013-05-31 23:46:00,
2013-05-31 19:51:00,74.8,72.6,29.99,ENE,75,5.0,18.0,93,0.26,,SKC,0.63,VWS V14.01,2013-05-31 23:51:00,
2013-05-31 19:56:00,74.8,73.0,29.99,East,95,0.0,18.0,94,0.26,,SKC,0.63,VWS V14.01,2013-05-31 23:56:00,
2013-05-31 20:01:00,74.9,73.1,30.00,NE,53,1.0,2.0,94,0.26,,SKC,0.63,VWS V14.01,2013-06-01 00:01:00,
2013-05-31 20:06:00,75.0,73.2,29.99,ENE,57,2.0,4.0,94,0.26,,SKC,0.63,VWS V14.01,2013-06-01 00:06:00,
2013-05-31 20:11:00,75.2,73.4,29.99,ENE,69,3.0,5.0,94,0.26,,SKC,0.63,VWS V14.01,2013-06-01 00:11:00,
2013-05-31 20:16:00,75.3,73.5,30.00,East,96,2.0,5.0,94,0.26,,SKC,0.63,VWS V14.01,2013-06-01 00:16:00,
2013-05-31 20:21:00,75.4,73.6,30.00,NE,48,5.0,6.0,94,0.26,,SKC,0.63,VWS V14.01,2013-06-01 00:21:00,
2013-05-31 20:26:00,75.4,73.6,30.00,NNW,331,0.0,6.0,94,0.26,,SKC,0.63,VWS V14.01,2013-06-01 00:26:00,
2013-05-31 20:31:00,75.5,73.7,29.99,East,86,5.0,6.0,94,0.26,,SKC,0.63,VWS V14.01,2013-06-01 00:31:00,
2013-05-31 20:36:00,75.5,73.7,29.99,ESE,110,4.0,7.0,94,0.27,,SKC,0.64,VWS V14.01,2013-06-01 00:36:00,
2013-05-31 20:41:00,75.5,73.7,30.00,ESE,117,0.0,7.0,94,0.27,,SKC,0.64,VWS V14.01,2013-06-01 00:41:00,
2013-05-31 20:46:00,75.5,73.7,30.00,ESE,123,0.0,7.0,94,0.27,,SKC,0.64,VWS V14.01,2013-06-01 00:46:00,
2013-05-31 20:51:00,75.4,73.6,30.00,SE,136,0.0,7.0,94,0.27,,SKC,0.64,VWS V14.01,2013-06-01 00:51:00,
2013-05-31 20:56:00,75.4,73.6,30.00,NE,55,2.0,7.0,94,0.27,,SKC,0.64,VWS V14.01,2013-06-01 00:56:00,
2013-05-31 21:01:00,75.3,73.5,30.00,NE,55,0.0,4.0,94,0.01,,SKC,0.64,VWS V14.01,2013-06-01 01:01:00,
2013-05-31 21:06:00,75.3,73.5,30.00,East,85,0.0,5.0,94,0.01,,SKC,0.64,VWS V14.01,2013-06-01 01:06:00,
2013-05-31 21:11:00,75.3,73.5,30.00,ESE,103,1.0,5.0,94,0.01,,SKC,0.64,VWS V14.01,2013-06-01 01:11:00,
2013-05-31 21:16:00,75.2,73.4,30.01,ENE,75,0.0,5.0,94,0.01,,SKC,0.64,VWS V14.01,2013-06-01 01:16:00,
2013-05-31 21:21:00,75.1,73.3,30.01,East,81,1.0,8.0,94,0.01,,SKC,0.64,VWS V14.01,2013-06-01 01:21:00,
2013-05-31 21:26:00,75.1,73.3,30.01,East,92,5.0,8.0,94,0.01,,SKC,0.64,VWS V14.01,2013-06-01 01:26:00,
2013-05-31 21:31:00,75.0,73.2,30.01,ENE,74,3.0,7.0,94,0.01,,SKC,0.64,VWS V14.01,2013-06-01 01:31:00,
2013-05-31 21:36:00,75.0,73.2,30.01,North,10,0.0,7.0,94,0.01,,SKC,0.64,VWS V14.01,2013-06-01 01:36:00,
2013-05-31 21:41:00,74.9,72.7,30.01,NE,44,4.0,7.0,93,0.01,,SKC,0.64,VWS V14.01,2013-06-01 01:41:00,
2013-05-31 21:46:00,74.7,72.6,30.01,NE,40,4.0,7.0,93,0.01,,SKC,0.64,VWS V14.01,2013-06-01 01:46:00,
2013-05-31 21:51:00,74.5,72.3,30.01,NE,35,5.0,7.0,93,0.01,,SKC,0.64,VWS V14.01,2013-06-01 01:51:00,
2013-05-31 21:56:00,74.4,72.2,30.01,NE,51,5.0,7.0,93,0.01,,SKC,0.64,VWS V14.01,2013-06-01 01:56:00,
2013-05-31 22:01:00,74.4,72.2,30.01,NE,51,1.0,2.0,93,0.00,,SKC,0.64,VWS V14.01,2013-06-01 02:01:00,
2013-05-31 22:06:00,74.3,72.2,30.01,ESE,117,1.0,5.0,93,0.00,,SKC,0.64,VWS V14.01,2013-06-01 02:06:00,
2013-05-31 22:11:00,74.3,72.2,30.01,ESE,105,2.0,6.0,93,0.00,,SKC,0.64,VWS V14.01,2013-06-01 02:11:00,
2013-05-31 22:16:00,74.3,72.2,30.01,NE,52,2.0,8.0,93,0.00,,SKC,0.64,VWS V14.01,2013-06-01 02:16:00,
2013-05-31 22:21:00,74.4,72.2,30.01,NE,44,5.0,8.0,93,0.00,,SKC,0.64,VWS V14.01,2013-06-01 02:21:00,
2013-05-31 22:26:00,74.4,72.2,30.01,NE,40,2.0,8.0,93,0.00,,SKC,0.64,VWS V14.01,2013-06-01 02:26:00,
2013-05-31 22:31:00,74.3,72.2,30.01,ENE,75,4.0,6.0,93,0.00,,SKC,0.64,VWS V14.01,2013-06-01 02:31:00,
2013-05-31 22:36:00,74.4,72.2,30.01,NNE,24,1.0,6.0,93,0.00,,SKC,0.64,VWS V14.01,2013-06-01 02:36:00,
2013-05-31 22:41:00,74.4,72.2,30.01,NE,40,5.0,6.0,93,0.00,,SKC,0.64,VWS V14.01,2013-06-01 02:41:00,
2013-05-31 22:46:00,74.3,72.2,30.00,NE,37,7.0,7.0,93,0.00,,SKC,0.64,VWS V14.01,2013-06-01 02:46:00,
2013-05-31 22:51:00,74.3,72.2,30.00,NE,40,2.0,7.0,93,0.00,,SKC,0.64,VWS V14.01,2013-06-01 02:51:00,
2013-05-31 22:56:00,74.3,72.2,30.01,NE,46,0.0,8.0,93,0.00,,SKC,0.64,VWS V14.01,2013-06-01 02:56:00,
2013-05-31 23:01:00,74.3,72.2,30.01,ENE,64,4.0,4.0,93,0.00,,SKC,0.64,VWS V14.01,2013-06-01 03:01:00,
2013-05-31 23:06:00,74.3,72.2,30.01,NNE,30,0.0,5.0,93,0.00,,SKC,0.64,VWS V14.01,2013-06-01 03:06:00,
2013-05-31 23:11:00,74.2,72.1,30.01,NE,51,1.0,5.0,93,0.00,,SKC,0.64,VWS V14.01,2013-06-01 03:11:00,
2013-05-31 23:16:00,74.2,72.1,30.01,NE,38,0.0,5.0,93,0.00,,SKC,0.64,VWS V14.01,2013-06-01 03:16:00,
2013-05-31 23:21:00,74.2,72.1,30.01,NNE,28,0.0,5.0,93,0.00,,SKC,0.64,VWS V14.01,2013-06-01 03:21:00,
2013-05-31 23:26:00,74.1,72.3,30.01,NE,48,0.0,5.0,94,0.00,,SKC,0.64,VWS V14.01,2013-06-01 03:26:00,
2013-05-31 23:31:00,74.0,72.2,30.01,NE,47,4.0,4.0,94,0.00,,SKC,0.64,VWS V14.01,2013-06-01 03:31:00,
2013-05-31 23:36:00,74.0,72.2,30.01,NE,34,1.0,4.0,94,0.00,,SKC,0.64,VWS V14.01,2013-06-01 03:36:00,
2013-05-31 23:41:00,74.0,72.2,30.01,NE,54,1.0,4.0,94,0.00,,SKC,0.64,VWS V14.01,2013-06-01 03:41:00,
2013-05-31 23:46:00,73.9,72.1,30.00,ENE,62,2.0,5.0,94,0.00,,SKC,0.64,VWS V14.01,2013-06-01 03:46:00,
2013-05-31 23:51:00,73.9,72.1,30.01,NNE,28,1.0,5.0,94,0.00,,SKC,0.64,VWS V14.01,2013-06-01 03:51:00,
2013-05-31 23:56:00,73.9,72.1,30.01,NE,43,5.0,6.0,94,0.00,,SKC,0.64,VWS V14.01,2013-06-01 03:56:00,